sensor_id;sensor_type;location;lat;lon;timestamp;temperature;humidity
16643;DHT22;8435;52.184;5.406;2022-12-07T00:01:59;7.40;99.90
16643;DHT22;8435;52.184;5.406;2022-12-07T00:04:27;7.40;99.90
16643;DHT22;8435;52.184;5.406;2022-12-07T00:06:54;7.40;99.90
16643;DHT22;8435;52.184;5.406;2022-12-07T00:09:20;7.30;99.90
16643;DHT22;8435;52.184;5.406;2022-12-07T00:11:49;7.30;99.90
16643;DHT22;8435;52.184;5.406;2022-12-07T00:14:19;7.30;99.90
16643;DHT22;8435;52.184;5.406;2022-12-07T00:16:48;7.30;99.90
16643;DHT22;8435;52.184;5.406;2022-12-07T00:19:15;7.30;99.90
16643;DHT22;8435;52.184;5.406;2022-12-07T00:21:43;7.20;99.90
16643;DHT22;8435;52.184;5.406;2022-12-07T00:24:10;7.20;99.90
16643;DHT22;8435;52.184;5.406;2022-12-07T00:26:42;7.20;99.90
16643;DHT22;8435;52.184;5.406;2022-12-07T00:29:14;7.20;99.90
16643;DHT22;8435;52.184;5.406;2022-12-07T00:31:41;7.10;99.90
16643;DHT22;8435;52.184;5.406;2022-12-07T00:34:12;7.10;99.90
16643;DHT22;8435;52.184;5.406;2022-12-07T00:36:40;7.10;99.90
16643;DHT22;8435;52.184;5.406;2022-12-07T00:39:08;7.00;99.90
16643;DHT22;8435;52.184;5.406;2022-12-07T00:41:35;7.00;99.90
16643;DHT22;8435;52.184;5.406;2022-12-07T00:44:01;7.00;99.90
16643;DHT22;8435;52.184;5.406;2022-12-07T00:46:28;7.00;99.90
16643;DHT22;8435;52.184;5.406;2022-12-07T00:48:56;7.00;99.90
16643;DHT22;8435;52.184;5.406;2022-12-07T00:51:28;7.00;99.90
16643;DHT22;8435;52.184;5.406;2022-12-07T00:53:55;7.00;99.90
16643;DHT22;8435;52.184;5.406;2022-12-07T00:56:24;6.90;99.90
16643;DHT22;8435;52.184;5.406;2022-12-07T00:58:52;6.90;99.90
16643;DHT22;8435;52.184;5.406;2022-12-07T01:01:21;6.90;99.90
16643;DHT22;8435;52.184;5.406;2022-12-07T01:03:49;6.80;99.90
16643;DHT22;8435;52.184;5.406;2022-12-07T01:06:16;6.90;99.90
16643;DHT22;8435;52.184;5.406;2022-12-07T01:08:43;6.80;99.90
16643;DHT22;8435;52.184;5.406;2022-12-07T01:11:13;6.80;99.90
16643;DHT22;8435;52.184;5.406;2022-12-07T01:13:41;6.70;99.90
16643;DHT22;8435;52.184;5.406;2022-12-07T01:16:10;6.80;99.90
16643;DHT22;8435;52.184;5.406;2022-12-07T01:18:37;6.80;99.90
16643;DHT22;8435;52.184;5.406;2022-12-07T01:21:09;6.70;99.90
16643;DHT22;8435;52.184;5.406;2022-12-07T01:23:37;6.70;99.90
16643;DHT22;8435;52.184;5.406;2022-12-07T01:26:06;6.70;99.90
16643;DHT22;8435;52.184;5.406;2022-12-07T01:28:34;6.70;99.90
16643;DHT22;8435;52.184;5.406;2022-12-07T01:31:04;6.70;99.90
16643;DHT22;8435;52.184;5.406;2022-12-07T01:33:33;6.60;99.90
16643;DHT22;8435;52.184;5.406;2022-12-07T01:36:04;6.60;99.90
16643;DHT22;8435;52.184;5.406;2022-12-07T01:38:31;6.60;99.90
16643;DHT22;8435;52.184;5.406;2022-12-07T01:41:00;6.60;99.90
16643;DHT22;8435;52.184;5.406;2022-12-07T01:43:30;6.60;99.90
16643;DHT22;8435;52.184;5.406;2022-12-07T01:45:58;6.50;99.90
16643;DHT22;8435;52.184;5.406;2022-12-07T01:48:28;6.50;99.90
16643;DHT22;8435;52.184;5.406;2022-12-07T01:51:00;6.50;99.90
16643;DHT22;8435;52.184;5.406;2022-12-07T01:53:30;6.50;99.90
16643;DHT22;8435;52.184;5.406;2022-12-07T01:55:57;6.50;99.90
16643;DHT22;8435;52.184;5.406;2022-12-07T01:58:25;6.40;99.90
16643;DHT22;8435;52.184;5.406;2022-12-07T02:00:55;6.40;99.90
16643;DHT22;8435;52.184;5.406;2022-12-07T02:03:29;6.50;99.90
16643;DHT22;8435;52.184;5.406;2022-12-07T02:05:57;6.40;99.90
16643;DHT22;8435;52.184;5.406;2022-12-07T02:08:24;6.40;99.90
16643;DHT22;8435;52.184;5.406;2022-12-07T02:10:51;6.40;99.90
16643;DHT22;8435;52.184;5.406;2022-12-07T02:13:21;6.40;99.90
16643;DHT22;8435;52.184;5.406;2022-12-07T02:16:03;6.40;99.90
16643;DHT22;8435;52.184;5.406;2022-12-07T02:18:41;6.40;99.90
16643;DHT22;8435;52.184;5.406;2022-12-07T02:21:15;6.40;99.90
16643;DHT22;8435;52.184;5.406;2022-12-07T02:27:07;6.40;99.90
16643;DHT22;8435;52.184;5.406;2022-12-07T02:29:39;6.40;99.90
16643;DHT22;8435;52.184;5.406;2022-12-07T02:32:16;6.40;99.90
16643;DHT22;8435;52.184;5.406;2022-12-07T02:34:49;6.30;99.90
16643;DHT22;8435;52.184;5.406;2022-12-07T02:37:32;6.40;99.90
16643;DHT22;8435;52.184;5.406;2022-12-07T02:40:05;6.40;99.90
16643;DHT22;8435;52.184;5.406;2022-12-07T02:42:39;6.40;99.90
16643;DHT22;8435;52.184;5.406;2022-12-07T02:45:10;6.40;99.90
16643;DHT22;8435;52.184;5.406;2022-12-07T02:47:37;6.40;99.90
16643;DHT22;8435;52.184;5.406;2022-12-07T02:50:07;6.50;99.90
16643;DHT22;8435;52.184;5.406;2022-12-07T02:52:34;6.50;99.90
16643;DHT22;8435;52.184;5.406;2022-12-07T02:55:01;6.50;99.90
16643;DHT22;8435;52.184;5.406;2022-12-07T02:57:40;6.50;99.90
16643;DHT22;8435;52.184;5.406;2022-12-07T03:00:11;6.50;99.90
16643;DHT22;8435;52.184;5.406;2022-12-07T03:02:49;6.50;99.90
16643;DHT22;8435;52.184;5.406;2022-12-07T03:05:28;6.50;99.90
16643;DHT22;8435;52.184;5.406;2022-12-07T03:08:02;6.60;99.90
16643;DHT22;8435;52.184;5.406;2022-12-07T03:10:38;6.60;99.90
16643;DHT22;8435;52.184;5.406;2022-12-07T03:13:10;6.50;99.90
16643;DHT22;8435;52.184;5.406;2022-12-07T03:15:46;6.60;99.90
16643;DHT22;8435;52.184;5.406;2022-12-07T03:18:19;6.60;99.90
16643;DHT22;8435;52.184;5.406;2022-12-07T03:20:51;6.60;99.90
16643;DHT22;8435;52.184;5.406;2022-12-07T03:23:20;6.60;99.90
16643;DHT22;8435;52.184;5.406;2022-12-07T03:25:55;6.60;99.90
16643;DHT22;8435;52.184;5.406;2022-12-07T03:28:24;6.60;99.90
16643;DHT22;8435;52.184;5.406;2022-12-07T03:30:57;6.60;99.90
16643;DHT22;8435;52.184;5.406;2022-12-07T03:33:29;6.60;99.90
16643;DHT22;8435;52.184;5.406;2022-12-07T03:36:01;6.60;99.90
16643;DHT22;8435;52.184;5.406;2022-12-07T03:38:35;6.60;99.90
16643;DHT22;8435;52.184;5.406;2022-12-07T03:41:09;6.60;99.90
16643;DHT22;8435;52.184;5.406;2022-12-07T03:43:44;6.50;99.90
16643;DHT22;8435;52.184;5.406;2022-12-07T03:46:20;6.50;99.90
16643;DHT22;8435;52.184;5.406;2022-12-07T03:48:55;6.50;99.90
16643;DHT22;8435;52.184;5.406;2022-12-07T03:51:27;6.50;99.90
16643;DHT22;8435;52.184;5.406;2022-12-07T03:54:00;6.50;99.90
16643;DHT22;8435;52.184;5.406;2022-12-07T03:56:29;6.50;99.90
16643;DHT22;8435;52.184;5.406;2022-12-07T03:58:56;6.50;99.90
16643;DHT22;8435;52.184;5.406;2022-12-07T04:01:25;6.50;99.90
16643;DHT22;8435;52.184;5.406;2022-12-07T04:03:51;6.50;99.90
16643;DHT22;8435;52.184;5.406;2022-12-07T04:06:18;6.50;99.90
16643;DHT22;8435;52.184;5.406;2022-12-07T04:08:45;6.40;99.90
16643;DHT22;8435;52.184;5.406;2022-12-07T04:11:12;6.50;99.90
16643;DHT22;8435;52.184;5.406;2022-12-07T04:13:41;6.50;99.90
16643;DHT22;8435;52.184;5.406;2022-12-07T04:16:27;6.50;99.90
16643;DHT22;8435;52.184;5.406;2022-12-07T04:18:53;6.50;99.90
16643;DHT22;8435;52.184;5.406;2022-12-07T04:21:20;6.50;99.90
16643;DHT22;8435;52.184;5.406;2022-12-07T04:23:47;6.50;99.90
16643;DHT22;8435;52.184;5.406;2022-12-07T04:26:14;6.50;99.90
16643;DHT22;8435;52.184;5.406;2022-12-07T04:28:41;6.50;99.90
16643;DHT22;8435;52.184;5.406;2022-12-07T04:31:07;6.50;99.90
16643;DHT22;8435;52.184;5.406;2022-12-07T04:33:36;6.50;99.90
16643;DHT22;8435;52.184;5.406;2022-12-07T04:36:03;6.40;99.90
16643;DHT22;8435;52.184;5.406;2022-12-07T04:38:30;6.40;99.90
16643;DHT22;8435;52.184;5.406;2022-12-07T04:40:57;6.40;99.90
16643;DHT22;8435;52.184;5.406;2022-12-07T04:43:24;6.40;99.90
16643;DHT22;8435;52.184;5.406;2022-12-07T04:45:51;6.30;99.90
16643;DHT22;8435;52.184;5.406;2022-12-07T04:48:17;6.30;99.90
16643;DHT22;8435;52.184;5.406;2022-12-07T04:50:47;6.30;99.90
16643;DHT22;8435;52.184;5.406;2022-12-07T04:53:14;6.30;99.90
16643;DHT22;8435;52.184;5.406;2022-12-07T04:55:41;6.30;99.90
16643;DHT22;8435;52.184;5.406;2022-12-07T04:58:10;6.30;99.90
16643;DHT22;8435;52.184;5.406;2022-12-07T05:00:37;6.30;99.90
16643;DHT22;8435;52.184;5.406;2022-12-07T05:03:04;6.20;99.90
16643;DHT22;8435;52.184;5.406;2022-12-07T05:05:31;6.20;99.90
16643;DHT22;8435;52.184;5.406;2022-12-07T05:08:02;6.30;99.90
16643;DHT22;8435;52.184;5.406;2022-12-07T05:10:29;6.20;99.90
16643;DHT22;8435;52.184;5.406;2022-12-07T05:12:56;6.20;99.90
16643;DHT22;8435;52.184;5.406;2022-12-07T05:15:24;6.20;99.90
16643;DHT22;8435;52.184;5.406;2022-12-07T05:17:51;6.20;99.90
16643;DHT22;8435;52.184;5.406;2022-12-07T05:20:18;6.10;99.90
16643;DHT22;8435;52.184;5.406;2022-12-07T05:22:45;6.10;99.90
16643;DHT22;8435;52.184;5.406;2022-12-07T05:25:14;6.10;99.90
16643;DHT22;8435;52.184;5.406;2022-12-07T05:27:41;6.00;99.90
16643;DHT22;8435;52.184;5.406;2022-12-07T05:30:08;6.10;99.90
16643;DHT22;8435;52.184;5.406;2022-12-07T05:32:35;6.10;99.90
16643;DHT22;8435;52.184;5.406;2022-12-07T05:35:02;6.10;99.90
16643;DHT22;8435;52.184;5.406;2022-12-07T05:37:31;6.10;99.90
16643;DHT22;8435;52.184;5.406;2022-12-07T05:39:57;6.10;99.90
16643;DHT22;8435;52.184;5.406;2022-12-07T05:42:25;6.00;99.90
16643;DHT22;8435;52.184;5.406;2022-12-07T05:44:52;6.10;99.90
16643;DHT22;8435;52.184;5.406;2022-12-07T05:47:20;6.10;99.90
16643;DHT22;8435;52.184;5.406;2022-12-07T05:49:47;6.10;99.90
16643;DHT22;8435;52.184;5.406;2022-12-07T05:52:14;6.10;99.90
16643;DHT22;8435;52.184;5.406;2022-12-07T05:54:41;6.10;99.90
16643;DHT22;8435;52.184;5.406;2022-12-07T05:57:07;6.10;99.90
16643;DHT22;8435;52.184;5.406;2022-12-07T05:59:36;6.10;99.90
16643;DHT22;8435;52.184;5.406;2022-12-07T06:02:03;6.20;99.90
16643;DHT22;8435;52.184;5.406;2022-12-07T06:04:32;6.20;99.90
16643;DHT22;8435;52.184;5.406;2022-12-07T06:06:59;6.20;99.90
16643;DHT22;8435;52.184;5.406;2022-12-07T06:09:27;6.20;99.90
16643;DHT22;8435;52.184;5.406;2022-12-07T06:11:54;6.20;99.90
16643;DHT22;8435;52.184;5.406;2022-12-07T06:14:40;6.20;99.90
16643;DHT22;8435;52.184;5.406;2022-12-07T06:17:07;6.20;99.90
16643;DHT22;8435;52.184;5.406;2022-12-07T06:19:34;6.20;99.90
16643;DHT22;8435;52.184;5.406;2022-12-07T06:22:01;6.20;99.90
16643;DHT22;8435;52.184;5.406;2022-12-07T06:24:28;6.20;99.90
16643;DHT22;8435;52.184;5.406;2022-12-07T06:26:55;6.20;99.90
16643;DHT22;8435;52.184;5.406;2022-12-07T06:29:21;6.30;99.90
16643;DHT22;8435;52.184;5.406;2022-12-07T06:31:50;6.30;99.90
16643;DHT22;8435;52.184;5.406;2022-12-07T06:34:19;6.30;99.90
16643;DHT22;8435;52.184;5.406;2022-12-07T06:36:47;6.30;99.90
16643;DHT22;8435;52.184;5.406;2022-12-07T06:39:17;6.40;99.90
16643;DHT22;8435;52.184;5.406;2022-12-07T06:41:44;6.30;99.90
16643;DHT22;8435;52.184;5.406;2022-12-07T06:44:13;6.30;99.90
16643;DHT22;8435;52.184;5.406;2022-12-07T06:46:40;6.40;99.90
16643;DHT22;8435;52.184;5.406;2022-12-07T06:49:08;6.40;99.90
16643;DHT22;8435;52.184;5.406;2022-12-07T06:51:35;6.40;99.90
16643;DHT22;8435;52.184;5.406;2022-12-07T06:54:06;6.40;99.90
16643;DHT22;8435;52.184;5.406;2022-12-07T06:56:33;6.40;99.90
16643;DHT22;8435;52.184;5.406;2022-12-07T06:59:00;6.30;99.90
16643;DHT22;8435;52.184;5.406;2022-12-07T07:01:26;6.30;99.90
16643;DHT22;8435;52.184;5.406;2022-12-07T07:03:53;6.20;99.90
16643;DHT22;8435;52.184;5.406;2022-12-07T07:06:21;6.20;99.90
16643;DHT22;8435;52.184;5.406;2022-12-07T07:08:48;6.10;99.90
16643;DHT22;8435;52.184;5.406;2022-12-07T07:11:15;6.10;99.90
16643;DHT22;8435;52.184;5.406;2022-12-07T07:13:42;6.10;99.90
16643;DHT22;8435;52.184;5.406;2022-12-07T07:16:09;6.00;99.90
16643;DHT22;8435;52.184;5.406;2022-12-07T07:18:36;6.00;99.90
16643;DHT22;8435;52.184;5.406;2022-12-07T07:21:04;6.00;99.90
16643;DHT22;8435;52.184;5.406;2022-12-07T07:23:32;6.00;99.90
16643;DHT22;8435;52.184;5.406;2022-12-07T07:25:59;6.00;99.90
16643;DHT22;8435;52.184;5.406;2022-12-07T07:28:25;5.90;99.90
16643;DHT22;8435;52.184;5.406;2022-12-07T07:30:52;5.90;99.90
16643;DHT22;8435;52.184;5.406;2022-12-07T07:33:19;5.90;99.90
16643;DHT22;8435;52.184;5.406;2022-12-07T07:35:46;5.90;99.90
16643;DHT22;8435;52.184;5.406;2022-12-07T07:38:12;5.90;99.90
16643;DHT22;8435;52.184;5.406;2022-12-07T07:40:41;5.80;99.90
16643;DHT22;8435;52.184;5.406;2022-12-07T07:43:07;5.80;99.90
16643;DHT22;8435;52.184;5.406;2022-12-07T07:45:34;5.80;99.90
16643;DHT22;8435;52.184;5.406;2022-12-07T07:48:01;5.80;99.90
16643;DHT22;8435;52.184;5.406;2022-12-07T07:50:28;5.70;99.90
16643;DHT22;8435;52.184;5.406;2022-12-07T07:52:56;5.70;99.90
16643;DHT22;8435;52.184;5.406;2022-12-07T07:55:23;5.70;99.90
16643;DHT22;8435;52.184;5.406;2022-12-07T07:57:51;5.70;99.90
16643;DHT22;8435;52.184;5.406;2022-12-07T08:00:19;5.70;99.90
16643;DHT22;8435;52.184;5.406;2022-12-07T08:02:46;5.80;99.90
16643;DHT22;8435;52.184;5.406;2022-12-07T08:05:13;5.80;99.90
16643;DHT22;8435;52.184;5.406;2022-12-07T08:07:40;5.80;99.90
16643;DHT22;8435;52.184;5.406;2022-12-07T08:10:08;5.80;99.90
16643;DHT22;8435;52.184;5.406;2022-12-07T08:12:37;5.80;99.90
16643;DHT22;8435;52.184;5.406;2022-12-07T08:15:26;5.80;99.90
16643;DHT22;8435;52.184;5.406;2022-12-07T08:17:53;5.90;99.90
16643;DHT22;8435;52.184;5.406;2022-12-07T08:20:20;5.90;99.90
16643;DHT22;8435;52.184;5.406;2022-12-07T08:22:50;6.00;99.90
16643;DHT22;8435;52.184;5.406;2022-12-07T08:25:17;6.00;99.90
16643;DHT22;8435;52.184;5.406;2022-12-07T08:27:44;6.00;99.90
16643;DHT22;8435;52.184;5.406;2022-12-07T08:30:11;6.10;99.90
16643;DHT22;8435;52.184;5.406;2022-12-07T08:32:39;6.10;99.90
16643;DHT22;8435;52.184;5.406;2022-12-07T08:35:07;6.20;99.90
16643;DHT22;8435;52.184;5.406;2022-12-07T08:37:34;6.30;99.90
16643;DHT22;8435;52.184;5.406;2022-12-07T08:40:01;6.40;99.90
16643;DHT22;8435;52.184;5.406;2022-12-07T08:42:28;6.40;99.90
16643;DHT22;8435;52.184;5.406;2022-12-07T08:45:03;6.50;99.90
16643;DHT22;8435;52.184;5.406;2022-12-07T08:47:30;6.50;99.90
16643;DHT22;8435;52.184;5.406;2022-12-07T08:49:59;6.60;99.90
16643;DHT22;8435;52.184;5.406;2022-12-07T08:52:29;6.60;99.90
16643;DHT22;8435;52.184;5.406;2022-12-07T08:54:56;6.70;99.90
16643;DHT22;8435;52.184;5.406;2022-12-07T08:57:24;6.70;99.90
16643;DHT22;8435;52.184;5.406;2022-12-07T08:59:56;6.70;99.90
16643;DHT22;8435;52.184;5.406;2022-12-07T09:02:26;6.80;99.90
16643;DHT22;8435;52.184;5.406;2022-12-07T09:04:53;6.80;99.90
16643;DHT22;8435;52.184;5.406;2022-12-07T09:07:21;6.80;99.90
16643;DHT22;8435;52.184;5.406;2022-12-07T09:09:48;6.90;99.90
16643;DHT22;8435;52.184;5.406;2022-12-07T09:12:15;6.90;99.90
16643;DHT22;8435;52.184;5.406;2022-12-07T09:14:41;7.00;99.90
16643;DHT22;8435;52.184;5.406;2022-12-07T09:17:10;7.00;99.90
16643;DHT22;8435;52.184;5.406;2022-12-07T09:19:37;7.00;99.90
16643;DHT22;8435;52.184;5.406;2022-12-07T09:22:05;7.00;99.90
16643;DHT22;8435;52.184;5.406;2022-12-07T09:24:33;7.10;99.90
16643;DHT22;8435;52.184;5.406;2022-12-07T09:27:00;7.10;99.90
16643;DHT22;8435;52.184;5.406;2022-12-07T09:29:27;7.20;99.90
16643;DHT22;8435;52.184;5.406;2022-12-07T09:31:53;7.20;99.90
16643;DHT22;8435;52.184;5.406;2022-12-07T09:34:20;7.30;99.90
16643;DHT22;8435;52.184;5.406;2022-12-07T09:36:47;7.30;99.90
16643;DHT22;8435;52.184;5.406;2022-12-07T09:39:14;7.30;99.90
16643;DHT22;8435;52.184;5.406;2022-12-07T09:41:44;7.30;99.90
16643;DHT22;8435;52.184;5.406;2022-12-07T09:44:13;7.40;99.90
16643;DHT22;8435;52.184;5.406;2022-12-07T09:46:42;7.40;99.90
16643;DHT22;8435;52.184;5.406;2022-12-07T09:49:12;7.50;99.90
16643;DHT22;8435;52.184;5.406;2022-12-07T09:51:41;7.50;99.90
16643;DHT22;8435;52.184;5.406;2022-12-07T09:54:09;7.60;99.90
16643;DHT22;8435;52.184;5.406;2022-12-07T09:56:40;7.60;99.90
16643;DHT22;8435;52.184;5.406;2022-12-07T09:59:15;7.60;99.90
16643;DHT22;8435;52.184;5.406;2022-12-07T10:01:43;7.60;99.90
16643;DHT22;8435;52.184;5.406;2022-12-07T10:04:13;7.60;99.90
16643;DHT22;8435;52.184;5.406;2022-12-07T10:06:41;7.60;99.90
16643;DHT22;8435;52.184;5.406;2022-12-07T10:09:12;7.60;99.90
16643;DHT22;8435;52.184;5.406;2022-12-07T10:12:01;7.60;99.90
16643;DHT22;8435;52.184;5.406;2022-12-07T10:14:32;7.60;99.90
16643;DHT22;8435;52.184;5.406;2022-12-07T10:16:59;7.60;99.90
16643;DHT22;8435;52.184;5.406;2022-12-07T10:19:29;7.70;99.90
16643;DHT22;8435;52.184;5.406;2022-12-07T10:22:04;7.70;99.90
16643;DHT22;8435;52.184;5.406;2022-12-07T10:24:31;7.80;99.90
16643;DHT22;8435;52.184;5.406;2022-12-07T10:26:58;7.80;99.90
16643;DHT22;8435;52.184;5.406;2022-12-07T10:29:31;7.80;99.90
16643;DHT22;8435;52.184;5.406;2022-12-07T10:31:59;7.80;99.90
16643;DHT22;8435;52.184;5.406;2022-12-07T10:34:28;7.90;99.90
16643;DHT22;8435;52.184;5.406;2022-12-07T10:37:15;7.90;99.90
16643;DHT22;8435;52.184;5.406;2022-12-07T10:39:43;7.80;99.90
16643;DHT22;8435;52.184;5.406;2022-12-07T10:42:17;7.80;99.90
16643;DHT22;8435;52.184;5.406;2022-12-07T10:44:46;7.80;99.90
16643;DHT22;8435;52.184;5.406;2022-12-07T10:47:28;7.80;99.90
16643;DHT22;8435;52.184;5.406;2022-12-07T10:50:12;7.90;99.90
16643;DHT22;8435;52.184;5.406;2022-12-07T10:52:50;7.90;99.90
16643;DHT22;8435;52.184;5.406;2022-12-07T10:55:27;7.90;99.90
16643;DHT22;8435;52.184;5.406;2022-12-07T10:58:15;7.90;99.90
16643;DHT22;8435;52.184;5.406;2022-12-07T11:00:53;8.00;99.90
16643;DHT22;8435;52.184;5.406;2022-12-07T11:06:34;8.00;99.90
16643;DHT22;8435;52.184;5.406;2022-12-07T11:09:21;8.10;99.90
16643;DHT22;8435;52.184;5.406;2022-12-07T11:11:59;8.20;99.90
16643;DHT22;8435;52.184;5.406;2022-12-07T11:14:33;8.30;99.90
16643;DHT22;8435;52.184;5.406;2022-12-07T11:17:07;8.30;99.90
16643;DHT22;8435;52.184;5.406;2022-12-07T11:19:46;8.40;99.90
16643;DHT22;8435;52.184;5.406;2022-12-07T11:22:20;8.40;99.90
16643;DHT22;8435;52.184;5.406;2022-12-07T11:24:56;8.50;99.90
16643;DHT22;8435;52.184;5.406;2022-12-07T11:27:35;8.50;99.90
16643;DHT22;8435;52.184;5.406;2022-12-07T11:30:16;8.50;99.90
16643;DHT22;8435;52.184;5.406;2022-12-07T11:33:02;8.50;99.90
16643;DHT22;8435;52.184;5.406;2022-12-07T11:35:46;8.50;99.90
16643;DHT22;8435;52.184;5.406;2022-12-07T11:38:19;8.50;99.90
16643;DHT22;8435;52.184;5.406;2022-12-07T11:40:49;8.50;99.90
16643;DHT22;8435;52.184;5.406;2022-12-07T11:43:21;8.50;99.90
16643;DHT22;8435;52.184;5.406;2022-12-07T11:45:56;8.50;99.90
16643;DHT22;8435;52.184;5.406;2022-12-07T11:48:33;8.50;99.90
16643;DHT22;8435;52.184;5.406;2022-12-07T11:51:02;8.50;99.90
16643;DHT22;8435;52.184;5.406;2022-12-07T11:53:33;8.60;99.90
16643;DHT22;8435;52.184;5.406;2022-12-07T11:56:06;8.60;99.90
16643;DHT22;8435;52.184;5.406;2022-12-07T11:58:53;8.70;99.90
16643;DHT22;8435;52.184;5.406;2022-12-07T12:01:39;8.70;99.90
16643;DHT22;8435;52.184;5.406;2022-12-07T12:04:22;8.80;99.90
16643;DHT22;8435;52.184;5.406;2022-12-07T12:06:50;8.80;99.90
16643;DHT22;8435;52.184;5.406;2022-12-07T12:09:19;8.90;99.90
16643;DHT22;8435;52.184;5.406;2022-12-07T12:12:02;8.90;99.90
16643;DHT22;8435;52.184;5.406;2022-12-07T12:14:44;9.00;99.90
16643;DHT22;8435;52.184;5.406;2022-12-07T12:17:30;9.00;99.90
16643;DHT22;8435;52.184;5.406;2022-12-07T12:20:06;9.00;99.90
16643;DHT22;8435;52.184;5.406;2022-12-07T12:22:43;9.00;99.90
16643;DHT22;8435;52.184;5.406;2022-12-07T12:25:20;9.00;99.90
16643;DHT22;8435;52.184;5.406;2022-12-07T12:27:49;9.00;99.90
16643;DHT22;8435;52.184;5.406;2022-12-07T12:30:33;9.10;99.90
16643;DHT22;8435;52.184;5.406;2022-12-07T12:33:13;9.10;99.90
16643;DHT22;8435;52.184;5.406;2022-12-07T12:35:42;9.10;99.90
16643;DHT22;8435;52.184;5.406;2022-12-07T12:38:27;9.10;99.90
16643;DHT22;8435;52.184;5.406;2022-12-07T12:40:56;9.10;99.90
16643;DHT22;8435;52.184;5.406;2022-12-07T12:43:43;9.20;99.90
16643;DHT22;8435;52.184;5.406;2022-12-07T12:46:36;9.30;99.90
16643;DHT22;8435;52.184;5.406;2022-12-07T12:49:37;9.30;99.90
16643;DHT22;8435;52.184;5.406;2022-12-07T12:55:46;9.50;99.90
16643;DHT22;8435;52.184;5.406;2022-12-07T12:58:35;9.50;99.90
16643;DHT22;8435;52.184;5.406;2022-12-07T13:01:38;9.50;99.90
16643;DHT22;8435;52.184;5.406;2022-12-07T13:04:18;9.40;99.90
16643;DHT22;8435;52.184;5.406;2022-12-07T13:06:48;9.40;99.90
16643;DHT22;8435;52.184;5.406;2022-12-07T13:09:20;9.30;99.90
16643;DHT22;8435;52.184;5.406;2022-12-07T13:11:50;9.30;99.90
16643;DHT22;8435;52.184;5.406;2022-12-07T13:14:40;9.20;99.90
16643;DHT22;8435;52.184;5.406;2022-12-07T13:17:09;9.10;99.90
16643;DHT22;8435;52.184;5.406;2022-12-07T13:19:57;9.00;99.90
16643;DHT22;8435;52.184;5.406;2022-12-07T13:22:50;8.90;99.90
16643;DHT22;8435;52.184;5.406;2022-12-07T13:25:23;8.80;99.90
16643;DHT22;8435;52.184;5.406;2022-12-07T13:27:57;8.80;99.90
16643;DHT22;8435;52.184;5.406;2022-12-07T13:30:26;8.70;99.90
16643;DHT22;8435;52.184;5.406;2022-12-07T13:32:56;8.70;99.90
16643;DHT22;8435;52.184;5.406;2022-12-07T13:35:32;8.60;99.90
16643;DHT22;8435;52.184;5.406;2022-12-07T13:38:02;8.60;99.90
16643;DHT22;8435;52.184;5.406;2022-12-07T13:40:30;8.60;99.90
16643;DHT22;8435;52.184;5.406;2022-12-07T13:42:59;8.50;99.90
16643;DHT22;8435;52.184;5.406;2022-12-07T13:45:28;8.50;99.90
16643;DHT22;8435;52.184;5.406;2022-12-07T13:48:15;8.50;99.90
16643;DHT22;8435;52.184;5.406;2022-12-07T13:50:43;8.40;99.90
16643;DHT22;8435;52.184;5.406;2022-12-07T13:53:12;8.40;99.90
16643;DHT22;8435;52.184;5.406;2022-12-07T13:55:45;8.40;99.90
16643;DHT22;8435;52.184;5.406;2022-12-07T13:58:14;8.40;99.90
16643;DHT22;8435;52.184;5.406;2022-12-07T14:00:41;8.40;99.90
16643;DHT22;8435;52.184;5.406;2022-12-07T14:03:27;8.30;99.90
16643;DHT22;8435;52.184;5.406;2022-12-07T14:06:18;8.30;99.90
16643;DHT22;8435;52.184;5.406;2022-12-07T14:08:45;8.30;99.90
16643;DHT22;8435;52.184;5.406;2022-12-07T14:11:17;8.30;99.90
16643;DHT22;8435;52.184;5.406;2022-12-07T14:13:56;8.30;99.90
16643;DHT22;8435;52.184;5.406;2022-12-07T14:16:27;8.30;99.90
16643;DHT22;8435;52.184;5.406;2022-12-07T14:18:55;8.30;99.90
16643;DHT22;8435;52.184;5.406;2022-12-07T14:21:24;8.40;99.90
16643;DHT22;8435;52.184;5.406;2022-12-07T14:24:16;8.40;99.90
16643;DHT22;8435;52.184;5.406;2022-12-07T14:26:44;8.40;99.90
16643;DHT22;8435;52.184;5.406;2022-12-07T14:29:30;8.40;99.90
16643;DHT22;8435;52.184;5.406;2022-12-07T14:31:59;8.40;99.90
16643;DHT22;8435;52.184;5.406;2022-12-07T14:34:35;8.40;99.90
16643;DHT22;8435;52.184;5.406;2022-12-07T14:37:02;8.40;99.90
16643;DHT22;8435;52.184;5.406;2022-12-07T14:39:28;8.40;99.90
16643;DHT22;8435;52.184;5.406;2022-12-07T14:41:55;8.40;99.90
16643;DHT22;8435;52.184;5.406;2022-12-07T14:44:23;8.40;99.90
16643;DHT22;8435;52.184;5.406;2022-12-07T14:46:50;8.40;99.90
16643;DHT22;8435;52.184;5.406;2022-12-07T14:49:17;8.40;99.90
16643;DHT22;8435;52.184;5.406;2022-12-07T14:51:46;8.40;99.90
16643;DHT22;8435;52.184;5.406;2022-12-07T14:54:15;8.40;99.90
16643;DHT22;8435;52.184;5.406;2022-12-07T14:56:43;8.40;99.90
16643;DHT22;8435;52.184;5.406;2022-12-07T14:59:11;8.40;99.90
16643;DHT22;8435;52.184;5.406;2022-12-07T15:01:40;8.40;99.90
16643;DHT22;8435;52.184;5.406;2022-12-07T15:04:06;8.40;99.90
16643;DHT22;8435;52.184;5.406;2022-12-07T15:06:33;8.40;99.90
16643;DHT22;8435;52.184;5.406;2022-12-07T15:09:01;8.40;99.90
16643;DHT22;8435;52.184;5.406;2022-12-07T15:11:28;8.40;99.90
16643;DHT22;8435;52.184;5.406;2022-12-07T15:13:54;8.40;99.90
16643;DHT22;8435;52.184;5.406;2022-12-07T15:16:40;8.40;99.90
16643;DHT22;8435;52.184;5.406;2022-12-07T15:19:11;8.40;99.90
16643;DHT22;8435;52.184;5.406;2022-12-07T15:21:40;8.40;99.90
16643;DHT22;8435;52.184;5.406;2022-12-07T15:24:08;8.30;99.90
16643;DHT22;8435;52.184;5.406;2022-12-07T15:26:35;8.30;99.90
16643;DHT22;8435;52.184;5.406;2022-12-07T15:29:07;8.30;99.90
16643;DHT22;8435;52.184;5.406;2022-12-07T15:31:34;8.30;99.90
16643;DHT22;8435;52.184;5.406;2022-12-07T15:34:03;8.20;99.90
16643;DHT22;8435;52.184;5.406;2022-12-07T15:36:31;8.20;99.90
16643;DHT22;8435;52.184;5.406;2022-12-07T15:38:58;8.20;99.90
16643;DHT22;8435;52.184;5.406;2022-12-07T15:41:26;8.10;99.90
16643;DHT22;8435;52.184;5.406;2022-12-07T15:43:53;8.10;99.90
16643;DHT22;8435;52.184;5.406;2022-12-07T15:46:41;8.10;99.90
16643;DHT22;8435;52.184;5.406;2022-12-07T15:49:12;8.00;99.90
16643;DHT22;8435;52.184;5.406;2022-12-07T15:51:39;8.00;99.90
16643;DHT22;8435;52.184;5.406;2022-12-07T15:54:06;8.00;99.90
16643;DHT22;8435;52.184;5.406;2022-12-07T15:56:35;8.00;99.90
16643;DHT22;8435;52.184;5.406;2022-12-07T15:59:02;7.90;99.90
16643;DHT22;8435;52.184;5.406;2022-12-07T16:01:32;7.90;99.90
16643;DHT22;8435;52.184;5.406;2022-12-07T16:04:00;7.90;99.90
16643;DHT22;8435;52.184;5.406;2022-12-07T16:06:28;7.90;99.90
16643;DHT22;8435;52.184;5.406;2022-12-07T16:08:55;7.90;99.90
16643;DHT22;8435;52.184;5.406;2022-12-07T16:11:25;7.80;99.90
16643;DHT22;8435;52.184;5.406;2022-12-07T16:13:51;7.80;99.90
16643;DHT22;8435;52.184;5.406;2022-12-07T16:16:19;7.80;99.90
16643;DHT22;8435;52.184;5.406;2022-12-07T16:18:48;7.80;99.90
16643;DHT22;8435;52.184;5.406;2022-12-07T16:21:16;7.80;99.90
16643;DHT22;8435;52.184;5.406;2022-12-07T16:23:45;7.80;99.90
16643;DHT22;8435;52.184;5.406;2022-12-07T16:26:13;7.70;99.90
16643;DHT22;8435;52.184;5.406;2022-12-07T16:28:40;7.70;99.90
16643;DHT22;8435;52.184;5.406;2022-12-07T16:31:15;7.70;99.90
16643;DHT22;8435;52.184;5.406;2022-12-07T16:33:43;7.60;99.90
16643;DHT22;8435;52.184;5.406;2022-12-07T16:36:12;7.70;99.90